首页
METAR-TAF:

METAR-TAF

机场 :

Northway, 阿拉斯加州, 美国

纬度: 62-57-40N, 经度: 141-55-44W, 海拔: 523米

当前天气观测

该预报发布于22分钟前的00:53 UTC
风速10节,风向西北,有时为17节阵风
温度 -4°C
湿度 42%
气压 1005 hPa
能見度: 16.1公里
多云层高于5000英尺

METAR: PAOR 070053Z 32010G17KT 10SM BKN050 M04/M15 A2969 RMK AO2 SLP090 MTNS OBSC S-W T10441150

时间: 17:15 (01:15 UTC)

预报

该预报发布于1小时和36分钟前的23:39 UTC
预报有效从07日的 00点(UTC)到 07日的 24点(UTC)
风速10节,风向西北,有时为18节阵风
能見度: 10公里
散云层高于6000英尺
多云层高于10000英尺
从 07日的 0300点(UTC)
风速8节,风向西北
能見度: 10公里
散云层高于5000英尺
从 07日的 1600点(UTC)
风速3节,风向多变
能見度: 10公里
散云层高于10000英尺

TAF: PAOR 062339Z 0700/0724 32010G18KT P6SM SCT060 BKN100 FM070300 31008KT P6SM SCT050 FM071600 VRB03KT P6SM SCT100

超过4000个机场的气象观测和天气预报(METAR&TAF报告)。

可查询的气象台以黄色和红色小点在地图上表示。

将鼠标移到小点上方,可查看气象台名称。

然后点击查看天气观测和预报。

如需切换地图:点击带黑十字的绿色按钮放大地图;点击带横线的绿色按钮缩小地图;或者点击绿色箭头查看邻近地区的地图。


METAR-TAF: